Time;durP1;ratioP1;P1;durP2;ratioP2;P2;SDS_P1;SDS_P2;PMS_P1;PMS_P2;Temp;Humidity;BMP_temperature;BMP_pressure;BME280_temperature;BME280_humidity;BME280_pressure;Samples;Min_cycle;Max_cycle;Signal;HPM_P1;HPM_P2
2022/10/06 00:02:54;;;;;;;20.08;6.28;;;;;;;;;;6107440;23;20245;-90
2022/10/06 00:06:00;;;;;;;17.20;6.30;;;;;;;;;;6107112;23;20294;-92
2022/10/06 00:09:05;;;;;;;18.92;6.60;;;;;;;;;;6107883;23;20170;-90
2022/10/06 00:12:12;;;;;;;18.80;6.40;;;;;;;;;;6108077;23;20202;-91
2022/10/06 00:15:19;;;;;;;17.02;6.38;;;;;;;;;;6108182;23;20202;-89
2022/10/06 00:18:24;;;;;;;18.30;5.75;;;;;;;;;;6108525;23;20620;-91
2022/10/06 00:21:29;;;;;;;24.25;6.07;;;;;;;;;;6108886;23;20222;-92
2022/10/06 00:24:34;;;;;;;17.67;6.05;;;;;;;;;;6108418;23;20170;-90
2022/10/06 00:27:46;;;;;;;15.43;6.38;;;;;;;;;;6107954;23;20221;-91
2022/10/06 00:30:52;;;;;;;16.23;6.45;;;;;;;;;;6107296;23;20201;-90
2022/10/06 00:33:57;;;;;;;18.08;6.40;;;;;;;;;;6108666;23;20658;-90
2022/10/06 00:37:03;;;;;;;16.20;6.40;;;;;;;;;;6108707;23;20242;-90
2022/10/06 00:40:11;;;;;;;17.23;6.85;;;;;;;;;;6107677;23;20173;-90
2022/10/06 00:43:44;;;;;;;23.50;6.70;;;;;;;;;;6108158;23;20178;-92
2022/10/06 00:46:55;;;;;;;16.95;6.80;;;;;;;;;;6073038;23;20181;-90
2022/10/06 00:50:01;;;;;;;30.48;6.80;;;;;;;;;;6107433;23;20189;-90
2022/10/06 00:53:07;;;;;;;19.30;6.57;;;;;;;;;;6108015;23;20158;-90
2022/10/06 00:56:13;;;;;;;18.30;6.35;;;;;;;;;;6110009;23;20190;-90
2022/10/06 00:59:19;;;;;;;15.48;6.20;;;;;;;;;;6109100;23;20650;-90
2022/10/06 01:02:28;;;;;;;28.98;6.05;;;;;;;;;;6110778;23;20162;-91
2022/10/06 01:05:35;;;;;;;31.73;6.45;;;;;;;;;;6110278;23;20178;-90
2022/10/06 01:08:42;;;;;;;29.08;6.47;;;;;;;;;;6109807;23;20176;-87
2022/10/06 01:11:49;;;;;;;25.50;6.63;;;;;;;;;;6109623;23;20173;-90
2022/10/06 01:14:55;;;;;;;19.38;5.35;;;;;;;;;;6109753;23;20218;-90
2022/10/06 01:18:05;;;;;;;30.73;6.25;;;;;;;;;;6109607;23;20256;-92
2022/10/06 01:21:12;;;;;;;24.48;6.18;;;;;;;;;;6110153;23;20178;-89
2022/10/06 01:24:19;;;;;;;39.53;6.95;;;;;;;;;;6109060;23;20174;-89
2022/10/06 01:27:27;;;;;;;26.45;6.32;;;;;;;;;;6109869;23;20170;-91
2022/10/06 01:30:34;;;;;;;16.25;5.90;;;;;;;;;;6108120;23;20253;-89
2022/10/06 01:33:40;;;;;;;24.42;7.38;;;;;;;;;;6109796;23;20204;-91
2022/10/06 01:36:45;;;;;;;21.70;7.38;;;;;;;;;;6109810;23;20174;-90
2022/10/06 01:39:53;;;;;;;19.80;6.75;;;;;;;;;;6109666;23;20606;-88
2022/10/06 01:42:59;;;;;;;26.13;7.68;;;;;;;;;;6109627;23;20272;-91
2022/10/06 01:46:05;;;;;;;30.88;7.15;;;;;;;;;;6108067;23;20170;-88
2022/10/06 01:49:10;;;;;;;34.35;7.90;;;;;;;;;;6108922;23;20170;-90
2022/10/06 01:52:15;;;;;;;29.20;7.07;;;;;;;;;;6107555;23;20265;-90
2022/10/06 01:55:22;;;;;;;16.60;6.70;;;;;;;;;;6108004;23;20165;-91
2022/10/06 01:58:27;;;;;;;23.70;6.65;;;;;;;;;;6107141;23;20182;-90
2022/10/06 02:01:33;;;;;;;33.53;6.80;;;;;;;;;;6108383;23;20170;-89
2022/10/06 02:04:38;;;;;;;45.47;6.25;;;;;;;;;;6106947;23;20347;-91
2022/10/06 02:07:46;;;;;;;19.67;5.93;;;;;;;;;;6107538;23;20242;-89
2022/10/06 02:10:54;;;;;;;43.80;7.50;;;;;;;;;;6105236;23;20213;-89
2022/10/06 02:14:04;;;;;;;20.65;5.35;;;;;;;;;;6106219;23;20182;-91
2022/10/06 02:17:10;;;;;;;20.27;6.03;;;;;;;;;;6106815;23;20247;-90
2022/10/06 02:20:18;;;;;;;21.40;6.13;;;;;;;;;;6105506;23;20241;-90
2022/10/06 02:23:24;;;;;;;16.38;6.28;;;;;;;;;;6106432;23;20178;-91
2022/10/06 02:26:30;;;;;;;19.65;6.13;;;;;;;;;;6105634;23;20166;-89
2022/10/06 02:29:37;;;;;;;26.95;6.30;;;;;;;;;;6106546;23;20658;-90
2022/10/06 02:32:43;;;;;;;61.90;6.25;;;;;;;;;;6106579;23;20166;-88
2022/10/06 02:35:54;;;;;;;85.65;6.32;;;;;;;;;;6105612;23;20170;-90
2022/10/06 02:39:00;;;;;;;21.67;5.72;;;;;;;;;;6108299;23;20161;-93
2022/10/06 02:42:11;;;;;;;29.63;5.60;;;;;;;;;;6108553;23;20170;-92
2022/10/06 02:45:17;;;;;;;38.20;6.65;;;;;;;;;;6107452;23;20474;-89
2022/10/06 02:48:23;;;;;;;79.43;7.10;;;;;;;;;;6107604;23;20166;-90
2022/10/06 02:51:31;;;;;;;29.15;6.47;;;;;;;;;;6107970;23;20246;-89
2022/10/06 02:54:38;;;;;;;26.02;6.78;;;;;;;;;;6109615;23;20178;-89
2022/10/06 02:57:45;;;;;;;23.33;6.45;;;;;;;;;;6110221;23;20214;-91
2022/10/06 03:00:51;;;;;;;24.02;6.00;;;;;;;;;;6109599;23;20186;-89
2022/10/06 03:03:56;;;;;;;45.67;6.60;;;;;;;;;;6109104;23;20173;-91
2022/10/06 03:07:01;;;;;;;37.20;6.40;;;;;;;;;;6109251;23;20222;-88
2022/10/06 03:10:11;;;;;;;38.55;7.50;;;;;;;;;;6107276;23;20193;-89
2022/10/06 03:13:17;;;;;;;62.35;7.85;;;;;;;;;;6109253;23;20177;-92
2022/10/06 03:16:24;;;;;;;33.38;7.10;;;;;;;;;;6108656;23;20325;-92
2022/10/06 03:19:29;;;;;;;24.02;6.38;;;;;;;;;;6107963;23;20278;-91
2022/10/06 03:22:34;;;;;;;32.53;5.75;;;;;;;;;;6106213;23;20194;-91
2022/10/06 03:25:40;;;;;;;52.40;8.23;;;;;;;;;;6106793;23;20182;-92
2022/10/06 03:28:48;;;;;;;65.03;7.40;;;;;;;;;;6107270;23;20171;-91
2022/10/06 03:31:53;;;;;;;55.65;6.45;;;;;;;;;;6108915;23;20657;-90
2022/10/06 03:34:58;;;;;;;48.38;7.40;;;;;;;;;;6108860;23;20245;-90
2022/10/06 03:38:03;;;;;;;62.13;7.10;;;;;;;;;;6107332;23;20545;-90
2022/10/06 03:41:10;;;;;;;69.72;7.35;;;;;;;;;;6108550;23;20235;-90
2022/10/06 03:44:17;;;;;;;60.28;6.80;;;;;;;;;;6107869;23;20165;-90
2022/10/06 03:47:22;;;;;;;58.75;6.80;;;;;;;;;;6106675;23;20618;-92
2022/10/06 03:50:27;;;;;;;38.97;6.30;;;;;;;;;;6106245;23;20617;-90
2022/10/06 03:53:33;;;;;;;61.40;7.07;;;;;;;;;;6105271;23;20214;-92
2022/10/06 03:56:39;;;;;;;101.38;7.80;;;;;;;;;;6105714;23;20185;-91
2022/10/06 03:59:46;;;;;;;27.27;6.35;;;;;;;;;;6106131;23;20170;-91
2022/10/06 04:02:53;;;;;;;47.67;6.80;;;;;;;;;;6104027;23;20177;-91
2022/10/06 04:05:59;;;;;;;25.58;7.57;;;;;;;;;;6105840;23;20172;-90
2022/10/06 04:09:05;;;;;;;18.60;7.15;;;;;;;;;;6105743;23;20649;-90
2022/10/06 04:12:11;;;;;;;63.53;7.47;;;;;;;;;;6104439;23;20194;-89
2022/10/06 04:15:19;;;;;;;52.70;6.90;;;;;;;;;;6102139;23;20169;-88
2022/10/06 04:18:24;;;;;;;77.05;8.60;;;;;;;;;;6104396;23;20166;-89
2022/10/06 04:21:31;;;;;;;20.77;6.78;;;;;;;;;;6104061;23;20466;-88
2022/10/06 04:24:36;;;;;;;44.40;6.75;;;;;;;;;;6104778;23;20173;-89
2022/10/06 04:27:42;;;;;;;23.27;6.10;;;;;;;;;;6103542;23;20170;-89
2022/10/06 04:30:57;;;;;;;54.33;7.40;;;;;;;;;;6107266;23;20202;-89
2022/10/06 04:34:03;;;;;;;66.05;6.68;;;;;;;;;;6108374;23;20174;-90
2022/10/06 04:37:09;;;;;;;87.80;6.90;;;;;;;;;;6108206;23;20237;-92
2022/10/06 04:40:15;;;;;;;25.30;6.57;;;;;;;;;;6107409;23;20170;-90
2022/10/06 04:43:21;;;;;;;48.35;6.63;;;;;;;;;;6107793;23;20267;-89
2022/10/06 04:46:29;;;;;;;37.40;5.88;;;;;;;;;;6108028;23;20550;-89
2022/10/06 04:49:34;;;;;;;99.88;7.80;;;;;;;;;;6108742;23;20473;-88
2022/10/06 04:52:41;;;;;;;33.30;6.70;;;;;;;;;;6108393;23;20165;-89
2022/10/06 04:55:46;;;;;;;103.13;6.68;;;;;;;;;;6108649;23;20231;-89
2022/10/06 04:58:53;;;;;;;123.85;6.82;;;;;;;;;;6106634;23;20260;-90
2022/10/06 05:02:02;;;;;;;39.92;6.05;;;;;;;;;;6108556;23;20234;-90
2022/10/06 05:05:07;;;;;;;34.22;5.57;;;;;;;;;;6108313;23;20157;-88
2022/10/06 05:08:26;;;;;;;23.13;5.60;;;;;;;;;;6107909;23;20166;-89
2022/10/06 05:11:32;;;;;;;20.95;6.57;;;;;;;;;;6107777;23;20660;-90
2022/10/06 05:14:38;;;;;;;17.58;6.55;;;;;;;;;;6108961;23;20575;-89
2022/10/06 05:17:45;;;;;;;27.37;6.70;;;;;;;;;;6109915;23;20249;-89
2022/10/06 05:20:56;;;;;;;28.90;6.93;;;;;;;;;;6107367;23;20184;-88
2022/10/06 05:24:02;;;;;;;25.60;5.25;;;;;;;;;;6108977;23;20230;-90
2022/10/06 05:27:07;;;;;;;23.02;6.18;;;;;;;;;;6111789;23;20165;-91
2022/10/06 05:30:13;;;;;;;48.80;5.70;;;;;;;;;;6109978;23;20174;-89
2022/10/06 05:33:20;;;;;;;17.10;5.68;;;;;;;;;;6108962;23;20178;-91
2022/10/06 05:36:26;;;;;;;42.73;6.83;;;;;;;;;;6109980;23;20198;-90
2022/10/06 05:42:56;;;;;;;35.73;7.20;;;;;;;;;;6113759;23;20198;-90
2022/10/06 05:46:04;;;;;;;27.88;6.43;;;;;;;;;;6112849;23;20198;-89
2022/10/06 05:49:12;;;;;;;14.75;5.65;;;;;;;;;;6111163;23;20637;-90
2022/10/06 05:52:23;;;;;;;33.05;6.00;;;;;;;;;;6110345;23;20205;-88
2022/10/06 05:55:28;;;;;;;102.63;7.47;;;;;;;;;;6111328;23;20224;-90
2022/10/06 05:58:37;;;;;;;14.07;5.80;;;;;;;;;;6108947;23;20490;-90
2022/10/06 06:01:43;;;;;;;38.20;6.35;;;;;;;;;;6111189;23;20198;-90
2022/10/06 06:05:03;;;;;;;10.80;5.82;;;;;;;;;;6108084;23;20170;-90
2022/10/06 06:08:09;;;;;;;26.48;5.32;;;;;;;;;;6109331;23;20161;-90
2022/10/06 06:11:14;;;;;;;18.00;6.50;;;;;;;;;;6112210;23;20193;-92
2022/10/06 06:15:59;;;;;;;23.52;5.88;;;;;;;;;;6109321;23;20210;-90
2022/10/06 06:17:49;;;;;;;16.80;5.10;;;;;;;;;;6109005;23;20725;-90
2022/10/06 06:21:00;;;;;;;19.17;5.65;;;;;;;;;;6112467;23;20170;-91
2022/10/06 06:24:10;;;;;;;13.27;5.68;;;;;;;;;;6108693;23;20570;-90
2022/10/06 06:27:17;;;;;;;20.55;6.10;;;;;;;;;;6106759;23;20174;-90
2022/10/06 06:30:24;;;;;;;17.17;6.07;;;;;;;;;;6110416;23;20154;-90
2022/10/06 06:33:31;;;;;;;19.58;5.78;;;;;;;;;;6110220;23;20181;-90
2022/10/06 06:36:39;;;;;;;19.35;6.45;;;;;;;;;;6111822;23;20241;-90
2022/10/06 06:39:48;;;;;;;22.58;6.32;;;;;;;;;;6108552;23;20173;-91
2022/10/06 06:42:53;;;;;;;20.35;6.47;;;;;;;;;;6107917;23;20245;-92
2022/10/06 06:46:32;;;;;;;40.40;7.45;;;;;;;;;;6109287;23;20186;-91
2022/10/06 06:49:41;;;;;;;24.35;5.63;;;;;;;;;;6109203;23;20174;-91
2022/10/06 06:52:49;;;;;;;14.35;5.53;;;;;;;;;;6107477;23;20301;-91
2022/10/06 06:55:55;;;;;;;15.25;5.25;;;;;;;;;;6106652;23;20178;-91
2022/10/06 06:59:00;;;;;;;10.88;4.75;;;;;;;;;;6108897;23;20215;-92
2022/10/06 07:02:06;;;;;;;11.45;5.22;;;;;;;;;;6109552;23;20245;-90
2022/10/06 07:05:15;;;;;;;8.55;4.70;;;;;;;;;;6110519;23;20268;-90
2022/10/06 07:08:24;;;;;;;12.02;5.03;;;;;;;;;;6111383;23;20158;-90
2022/10/06 07:11:31;;;;;;;9.60;4.90;;;;;;;;;;6110146;23;20255;-88
2022/10/06 07:25:05;;;;;;;6.63;3.65;;;;;;;;;;6107457;23;20177;-92
2022/10/06 07:25:10;;;;;;;10.15;5.35;;;;;;;;;;6106981;23;20191;-91
2022/10/06 07:28:19;;;;;;;7.88;4.85;;;;;;;;;;6105752;23;20246;-90
2022/10/06 07:31:26;;;;;;;9.10;5.00;;;;;;;;;;6104783;23;20194;-91
2022/10/06 07:34:31;;;;;;;8.68;4.68;;;;;;;;;;6107860;23;20202;-90
2022/10/06 07:37:41;;;;;;;8.65;4.25;;;;;;;;;;6107207;23;20241;-90
2022/10/06 07:40:54;;;;;;;8.75;4.10;;;;;;;;;;6107111;23;20257;-90
2022/10/06 07:44:04;;;;;;;7.05;4.18;;;;;;;;;;6106172;23;20177;-92
2022/10/06 07:47:10;;;;;;;6.45;3.92;;;;;;;;;;6106467;23;20169;-90
2022/10/06 07:50:31;;;;;;;8.52;3.88;;;;;;;;;;6106124;23;20586;-90
2022/10/06 07:53:37;;;;;;;7.15;4.50;;;;;;;;;;6108141;23;20166;-91
2022/10/06 07:57:14;;;;;;;8.10;4.25;;;;;;;;;;6109128;23;20180;-91
2022/10/06 08:00:21;;;;;;;8.38;4.57;;;;;;;;;;6107373;23;20169;-89
2022/10/06 08:03:27;;;;;;;9.43;4.30;;;;;;;;;;6107013;23;20174;-89
2022/10/06 08:06:33;;;;;;;6.57;3.70;;;;;;;;;;6107831;23;20173;-89
2022/10/06 08:09:38;;;;;;;7.22;3.80;;;;;;;;;;6109197;23;20165;-89
2022/10/06 08:12:45;;;;;;;6.18;4.10;;;;;;;;;;6107278;23;20247;-89
2022/10/06 08:15:55;;;;;;;10.90;4.40;;;;;;;;;;6106753;23;20208;-90
2022/10/06 08:19:00;;;;;;;6.38;3.90;;;;;;;;;;6104614;23;20190;-90
2022/10/06 08:22:06;;;;;;;9.05;4.30;;;;;;;;;;6105824;23;20153;-89
2022/10/06 08:25:11;;;;;;;10.27;4.57;;;;;;;;;;6107232;23;20169;-90
2022/10/06 08:28:23;;;;;;;7.93;4.30;;;;;;;;;;6106580;23;20166;-90
2022/10/06 08:31:27;;;;;;;8.57;4.57;;;;;;;;;;6107890;23;20211;-89
2022/10/06 08:34:35;;;;;;;9.18;4.13;;;;;;;;;;6107109;23;20177;-88
2022/10/06 08:37:41;;;;;;;8.68;3.67;;;;;;;;;;6110738;23;20194;-87
2022/10/06 08:40:47;;;;;;;11.00;4.10;;;;;;;;;;6106049;23;20190;-88
2022/10/06 08:43:57;;;;;;;7.18;4.25;;;;;;;;;;6107577;23;20189;-91
2022/10/06 08:47:04;;;;;;;9.77;4.13;;;;;;;;;;6107501;23;20264;-91
2022/10/06 08:50:12;;;;;;;16.55;4.18;;;;;;;;;;6107112;23;20232;-90
2022/10/06 08:53:26;;;;;;;11.38;4.78;;;;;;;;;;6105954;23;20246;-90
2022/10/06 08:56:34;;;;;;;19.42;4.55;;;;;;;;;;6106201;23;20199;-90
2022/10/06 08:59:51;;;;;;;14.65;5.22;;;;;;;;;;6106945;23;20297;-90
2022/10/06 09:03:03;;;;;;;10.35;4.22;;;;;;;;;;6107231;23;20178;-91
2022/10/06 09:06:15;;;;;;;7.40;4.30;;;;;;;;;;6106712;23;20178;-90
2022/10/06 09:09:36;;;;;;;9.80;4.72;;;;;;;;;;6106767;23;20189;-90
2022/10/06 09:12:43;;;;;;;9.00;4.55;;;;;;;;;;6108056;23;20220;-90
2022/10/06 09:15:51;;;;;;;8.00;4.35;;;;;;;;;;6106930;23;20246;-92
2022/10/06 09:19:02;;;;;;;11.10;5.00;;;;;;;;;;6111223;23;20166;-89
2022/10/06 09:22:14;;;;;;;7.72;4.32;;;;;;;;;;6109130;23;20193;-91
2022/10/06 09:25:33;;;;;;;13.18;4.35;;;;;;;;;;6103361;23;20174;-90
2022/10/06 09:28:38;;;;;;;9.27;4.07;;;;;;;;;;6105589;23;20186;-91
2022/10/06 09:31:49;;;;;;;8.93;4.22;;;;;;;;;;6104934;23;20174;-91
2022/10/06 09:34:55;;;;;;;9.38;4.60;;;;;;;;;;6106212;23;20161;-91
2022/10/06 09:38:02;;;;;;;7.07;3.80;;;;;;;;;;6106872;23;20170;-90
2022/10/06 09:41:07;;;;;;;8.90;4.28;;;;;;;;;;6103831;23;20206;-91
2022/10/06 09:44:23;;;;;;;5.88;3.67;;;;;;;;;;6104424;23;20723;-91
2022/10/06 09:47:37;;;;;;;5.90;3.55;;;;;;;;;;6104376;23;20178;-91
2022/10/06 09:50:42;;;;;;;8.05;3.70;;;;;;;;;;6106079;23;20181;-92
2022/10/06 09:54:06;;;;;;;6.85;3.47;;;;;;;;;;6103476;23;20330;-92
2022/10/06 09:57:16;;;;;;;9.30;3.95;;;;;;;;;;6104834;23;20181;-88
2022/10/06 10:00:28;;;;;;;9.52;3.78;;;;;;;;;;6106531;23;20174;-92
2022/10/06 10:03:50;;;;;;;12.43;3.95;;;;;;;;;;6105282;23;20177;-90
2022/10/06 10:07:15;;;;;;;9.13;3.78;;;;;;;;;;6106668;23;20178;-91
2022/10/06 10:10:21;;;;;;;9.77;3.80;;;;;;;;;;6104823;23;20606;-91
2022/10/06 10:13:28;;;;;;;8.70;3.22;;;;;;;;;;6105707;23;20269;-92
2022/10/06 10:16:36;;;;;;;11.13;4.20;;;;;;;;;;6106824;23;20532;-91
2022/10/06 10:19:46;;;;;;;8.50;3.97;;;;;;;;;;6106964;23;20331;-90
2022/10/06 10:22:52;;;;;;;7.45;3.78;;;;;;;;;;6106705;23;20201;-90
2022/10/06 10:26:16;;;;;;;19.33;3.88;;;;;;;;;;6104993;23;20172;-90
2022/10/06 10:29:40;;;;;;;9.15;3.55;;;;;;;;;;6106081;23;20529;-91
2022/10/06 10:32:57;;;;;;;8.02;3.15;;;;;;;;;;6105411;23;20194;-90
2022/10/06 10:36:06;;;;;;;3.75;2.65;;;;;;;;;;6106185;23;20170;-91
2022/10/06 10:39:14;;;;;;;11.65;3.30;;;;;;;;;;6108801;23;20261;-90
2022/10/06 10:42:25;;;;;;;8.18;3.53;;;;;;;;;;6107391;23;20230;-90
2022/10/06 10:45:32;;;;;;;24.95;5.25;;;;;;;;;;6106952;23;20181;-92
2022/10/06 10:48:48;;;;;;;12.63;3.53;;;;;;;;;;6110583;23;20273;-91
2022/10/06 10:55:27;;;;;;;5.93;3.17;;;;;;;;;;6105345;23;20249;-91
2022/10/06 10:58:35;;;;;;;6.75;2.92;;;;;;;;;;6105881;23;20165;-92
2022/10/06 11:01:42;;;;;;;10.15;5.03;;;;;;;;;;6106584;23;20174;-90
2022/10/06 11:04:51;;;;;;;10.95;3.20;;;;;;;;;;6108696;23;20283;-91
2022/10/06 11:11:21;;;;;;;12.35;3.80;;;;;;;;;;6106449;23;20232;-91
2022/10/06 11:14:35;;;;;;;9.35;2.97;;;;;;;;;;6110283;23;20169;-93
2022/10/06 22:27:21;;;;;;;16.98;8.30;;;;;;;;;;6077524;23;20206;-92
2022/10/06 22:30:30;;;;;;;22.58;8.43;;;;;;;;;;6113362;23;20174;-91
2022/10/06 22:33:37;;;;;;;30.25;8.95;;;;;;;;;;6114169;23;20197;-91
2022/10/06 22:36:43;;;;;;;25.33;8.10;;;;;;;;;;6111884;23;20169;-89
2022/10/06 22:39:48;;;;;;;36.38;8.13;;;;;;;;;;6113113;23;20154;-90
2022/10/06 22:42:55;;;;;;;20.05;7.95;;;;;;;;;;6111495;23;20177;-90
2022/10/06 22:46:00;;;;;;;27.23;8.20;;;;;;;;;;6111713;23;20174;-89
2022/10/06 22:49:06;;;;;;;24.40;8.23;;;;;;;;;;6112630;23;20217;-90
2022/10/06 22:52:13;;;;;;;21.67;8.25;;;;;;;;;;6111898;23;20170;-90
2022/10/06 22:55:18;;;;;;;26.88;8.45;;;;;;;;;;6112859;23;20170;-92
2022/10/06 22:58:24;;;;;;;17.05;8.38;;;;;;;;;;6111575;23;20283;-90
2022/10/06 23:01:30;;;;;;;28.88;9.20;;;;;;;;;;6109484;23;20182;-91
2022/10/06 23:04:36;;;;;;;21.33;8.77;;;;;;;;;;6111022;23;20240;-91
2022/10/06 23:07:41;;;;;;;33.03;9.52;;;;;;;;;;6111443;23;20173;-90
2022/10/06 23:10:46;;;;;;;49.53;9.63;;;;;;;;;;6108256;23;20411;-91
2022/10/06 23:13:54;;;;;;;55.05;8.82;;;;;;;;;;6111637;23;20206;-90
2022/10/06 23:16:59;;;;;;;27.77;9.30;;;;;;;;;;6109653;23;20226;-89
2022/10/06 23:20:04;;;;;;;23.67;9.45;;;;;;;;;;6110696;23;20162;-93
2022/10/06 23:23:10;;;;;;;139.25;11.77;;;;;;;;;;6110814;23;20234;-91
2022/10/06 23:26:18;;;;;;;37.53;10.45;;;;;;;;;;6111100;23;20249;-88
2022/10/06 23:29:25;;;;;;;21.83;9.27;;;;;;;;;;6110061;23;20165;-91
2022/10/06 23:32:31;;;;;;;26.65;9.80;;;;;;;;;;6110233;23;20680;-90
2022/10/06 23:35:36;;;;;;;76.97;10.50;;;;;;;;;;6110893;23;20177;-89
2022/10/06 23:38:43;;;;;;;38.97;11.00;;;;;;;;;;6112065;23;20186;-90
2022/10/06 23:41:48;;;;;;;19.45;9.45;;;;;;;;;;6110025;23;20626;-90
2022/10/06 23:44:55;;;;;;;34.17;9.35;;;;;;;;;;6110593;23;20199;-90
2022/10/06 23:48:00;;;;;;;45.95;10.30;;;;;;;;;;6109001;23;20199;-90
2022/10/06 23:51:06;;;;;;;27.60;9.10;;;;;;;;;;6108495;23;20622;-89
2022/10/06 23:54:12;;;;;;;31.67;8.98;;;;;;;;;;6108999;23;20202;-92
2022/10/06 23:57:17;;;;;;;25.10;9.77;;;;;;;;;;6109505;23;20227;-90
